Terminal Aerodrome Forecast
Issued by NWS

Home | Current Version | Previous Version | Text Only | Print | Product List | Glossary On
Versions: 1 2 3 4 5 6 7 8 9 10 11 12 13 14
000
FTUS45 KTFX 010500
TAFBZN
TAF
KBZN 010520Z 0106/0206 30009KT P6SM VCSH SCT035 BKN050
     FM011000 30009KT P6SM VCSH SCT025 BKN040
      TEMPO 0111/0115 5SM -SHRA BKN025
     FM012000 26008KT P6SM SCT050
     FM020100 VRB06KT P6SM SKC=

USA.gov is the U.S. government's official web portal to all federal, state and local government web resources and services.